sensor_id;sensor_type;location;lat;lon;timestamp;P1;durP1;ratioP1;P2;durP2;ratioP2
11247;SDS011;5681;53.316;13.950;2023-06-19T00:00:35;11.45;;;7.18;;
11247;SDS011;5681;53.316;13.950;2023-06-19T00:03:02;7.93;;;7.13;;
11247;SDS011;5681;53.316;13.950;2023-06-19T00:05:28;9.20;;;7.22;;
11247;SDS011;5681;53.316;13.950;2023-06-19T00:07:55;9.20;;;7.50;;
11247;SDS011;5681;53.316;13.950;2023-06-19T00:10:21;11.30;;;7.72;;
11247;SDS011;5681;53.316;13.950;2023-06-19T00:12:48;8.43;;;7.50;;
11247;SDS011;5681;53.316;13.950;2023-06-19T00:15:14;9.07;;;7.22;;
11247;SDS011;5681;53.316;13.950;2023-06-19T00:17:42;8.40;;;7.45;;
11247;SDS011;5681;53.316;13.950;2023-06-19T00:20:09;8.02;;;7.22;;
11247;SDS011;5681;53.316;13.950;2023-06-19T00:22:35;8.70;;;7.43;;
11247;SDS011;5681;53.316;13.950;2023-06-19T00:25:02;7.43;;;6.82;;
11247;SDS011;5681;53.316;13.950;2023-06-19T00:27:28;9.32;;;8.30;;
11247;SDS011;5681;53.316;13.950;2023-06-19T00:29:55;11.80;;;7.93;;
11247;SDS011;5681;53.316;13.950;2023-06-19T00:32:26;7.90;;;7.10;;
11247;SDS011;5681;53.316;13.950;2023-06-19T00:34:54;9.68;;;7.22;;
11247;SDS011;5681;53.316;13.950;2023-06-19T00:37:25;8.27;;;7.50;;
11247;SDS011;5681;53.316;13.950;2023-06-19T00:39:57;7.80;;;7.10;;
11247;SDS011;5681;53.316;13.950;2023-06-19T00:42:23;9.65;;;7.22;;
11247;SDS011;5681;53.316;13.950;2023-06-19T00:44:49;8.07;;;7.30;;
11247;SDS011;5681;53.316;13.950;2023-06-19T00:47:16;8.73;;;7.93;;
11247;SDS011;5681;53.316;13.950;2023-06-19T00:49:46;8.40;;;7.55;;
11247;SDS011;5681;53.316;13.950;2023-06-19T00:52:16;8.90;;;8.00;;
11247;SDS011;5681;53.316;13.950;2023-06-19T00:54:43;11.05;;;6.90;;
11247;SDS011;5681;53.316;13.950;2023-06-19T00:57:13;7.78;;;7.07;;
11247;SDS011;5681;53.316;13.950;2023-06-19T00:59:39;8.15;;;7.45;;
11247;SDS011;5681;53.316;13.950;2023-06-19T01:02:05;8.95;;;8.05;;
11247;SDS011;5681;53.316;13.950;2023-06-19T01:04:32;8.80;;;7.63;;
11247;SDS011;5681;53.316;13.950;2023-06-19T01:06:59;7.95;;;7.22;;
11247;SDS011;5681;53.316;13.950;2023-06-19T01:09:33;8.75;;;7.53;;
11247;SDS011;5681;53.316;13.950;2023-06-19T01:12:08;9.25;;;8.25;;
11247;SDS011;5681;53.316;13.950;2023-06-19T01:14:39;9.10;;;8.20;;
11247;SDS011;5681;53.316;13.950;2023-06-19T01:17:11;8.85;;;8.05;;
11247;SDS011;5681;53.316;13.950;2023-06-19T01:19:40;8.57;;;7.80;;
11247;SDS011;5681;53.316;13.950;2023-06-19T01:22:21;8.95;;;8.10;;
11247;SDS011;5681;53.316;13.950;2023-06-19T01:24:48;10.07;;;8.93;;
11247;SDS011;5681;53.316;13.950;2023-06-19T01:27:15;8.77;;;7.78;;
11247;SDS011;5681;53.316;13.950;2023-06-19T01:29:41;8.65;;;7.85;;
11247;SDS011;5681;53.316;13.950;2023-06-19T01:32:09;9.00;;;8.20;;
11247;SDS011;5681;53.316;13.950;2023-06-19T01:34:36;9.90;;;8.90;;
11247;SDS011;5681;53.316;13.950;2023-06-19T01:37:06;9.40;;;8.43;;
11247;SDS011;5681;53.316;13.950;2023-06-19T01:39:34;10.60;;;8.23;;
11247;SDS011;5681;53.316;13.950;2023-06-19T01:42:01;8.93;;;8.13;;
11247;SDS011;5681;53.316;13.950;2023-06-19T01:44:29;10.45;;;9.35;;
11247;SDS011;5681;53.316;13.950;2023-06-19T01:46:58;8.50;;;7.70;;
11247;SDS011;5681;53.316;13.950;2023-06-19T01:49:27;8.70;;;7.80;;
11247;SDS011;5681;53.316;13.950;2023-06-19T01:51:53;9.77;;;8.77;;
11247;SDS011;5681;53.316;13.950;2023-06-19T01:54:22;8.68;;;7.93;;
11247;SDS011;5681;53.316;13.950;2023-06-19T01:56:49;9.32;;;7.82;;
11247;SDS011;5681;53.316;13.950;2023-06-19T01:59:16;9.43;;;8.55;;
11247;SDS011;5681;53.316;13.950;2023-06-19T02:01:42;8.60;;;7.70;;
11247;SDS011;5681;53.316;13.950;2023-06-19T02:04:09;8.80;;;8.00;;
11247;SDS011;5681;53.316;13.950;2023-06-19T02:06:35;10.35;;;9.35;;
11247;SDS011;5681;53.316;13.950;2023-06-19T02:09:01;10.50;;;8.57;;
11247;SDS011;5681;53.316;13.950;2023-06-19T02:11:28;10.48;;;9.45;;
11247;SDS011;5681;53.316;13.950;2023-06-19T02:13:55;11.23;;;9.95;;
11247;SDS011;5681;53.316;13.950;2023-06-19T02:16:22;10.30;;;9.30;;
11247;SDS011;5681;53.316;13.950;2023-06-19T02:18:48;10.18;;;9.13;;
11247;SDS011;5681;53.316;13.950;2023-06-19T02:21:14;10.07;;;9.10;;
11247;SDS011;5681;53.316;13.950;2023-06-19T02:23:41;9.48;;;8.45;;
11247;SDS011;5681;53.316;13.950;2023-06-19T02:26:07;11.02;;;9.77;;
11247;SDS011;5681;53.316;13.950;2023-06-19T02:28:33;11.52;;;10.50;;
11247;SDS011;5681;53.316;13.950;2023-06-19T02:31:01;15.55;;;10.82;;
11247;SDS011;5681;53.316;13.950;2023-06-19T02:33:27;10.93;;;9.93;;
11247;SDS011;5681;53.316;13.950;2023-06-19T02:35:54;10.88;;;9.77;;
11247;SDS011;5681;53.316;13.950;2023-06-19T02:38:23;13.85;;;10.25;;
11247;SDS011;5681;53.316;13.950;2023-06-19T02:40:50;12.05;;;10.13;;
11247;SDS011;5681;53.316;13.950;2023-06-19T02:43:16;12.50;;;10.88;;
11247;SDS011;5681;53.316;13.950;2023-06-19T02:45:43;14.30;;;10.45;;
11247;SDS011;5681;53.316;13.950;2023-06-19T02:48:10;10.68;;;9.68;;
11247;SDS011;5681;53.316;13.950;2023-06-19T02:50:37;13.93;;;9.40;;
11247;SDS011;5681;53.316;13.950;2023-06-19T02:53:03;16.45;;;10.85;;
11247;SDS011;5681;53.316;13.950;2023-06-19T02:55:29;11.23;;;9.98;;
11247;SDS011;5681;53.316;13.950;2023-06-19T02:57:56;11.55;;;9.95;;
11247;SDS011;5681;53.316;13.950;2023-06-19T03:00:22;10.82;;;9.85;;
11247;SDS011;5681;53.316;13.950;2023-06-19T03:02:48;10.48;;;9.52;;
11247;SDS011;5681;53.316;13.950;2023-06-19T03:05:17;10.18;;;9.18;;
11247;SDS011;5681;53.316;13.950;2023-06-19T03:07:43;9.65;;;8.45;;
11247;SDS011;5681;53.316;13.950;2023-06-19T03:10:10;10.93;;;9.13;;
11247;SDS011;5681;53.316;13.950;2023-06-19T03:12:36;11.30;;;10.20;;
11247;SDS011;5681;53.316;13.950;2023-06-19T03:15:03;12.18;;;10.57;;
11247;SDS011;5681;53.316;13.950;2023-06-19T03:17:30;13.32;;;11.48;;
11247;SDS011;5681;53.316;13.950;2023-06-19T03:19:56;14.27;;;11.30;;
11247;SDS011;5681;53.316;13.950;2023-06-19T03:22:24;12.68;;;11.43;;
11247;SDS011;5681;53.316;13.950;2023-06-19T03:24:50;12.55;;;11.25;;
11247;SDS011;5681;53.316;13.950;2023-06-19T03:27:16;13.32;;;11.93;;
11247;SDS011;5681;53.316;13.950;2023-06-19T03:29:43;13.50;;;12.10;;
11247;SDS011;5681;53.316;13.950;2023-06-19T03:32:09;12.30;;;11.10;;
11247;SDS011;5681;53.316;13.950;2023-06-19T03:34:36;13.73;;;12.43;;
11247;SDS011;5681;53.316;13.950;2023-06-19T03:37:02;12.55;;;11.25;;
11247;SDS011;5681;53.316;13.950;2023-06-19T03:39:30;12.80;;;11.60;;
11247;SDS011;5681;53.316;13.950;2023-06-19T03:41:56;13.00;;;11.68;;
11247;SDS011;5681;53.316;13.950;2023-06-19T03:44:22;13.90;;;11.63;;
11247;SDS011;5681;53.316;13.950;2023-06-19T03:46:49;14.40;;;11.80;;
11247;SDS011;5681;53.316;13.950;2023-06-19T03:49:16;12.48;;;11.32;;
11247;SDS011;5681;53.316;13.950;2023-06-19T03:51:42;13.73;;;12.43;;
11247;SDS011;5681;53.316;13.950;2023-06-19T03:54:09;12.70;;;11.45;;
11247;SDS011;5681;53.316;13.950;2023-06-19T03:56:37;13.40;;;12.10;;
11247;SDS011;5681;53.316;13.950;2023-06-19T03:59:04;12.48;;;11.20;;
11247;SDS011;5681;53.316;13.950;2023-06-19T04:01:30;14.38;;;11.73;;
11247;SDS011;5681;53.316;13.950;2023-06-19T04:03:56;13.93;;;11.57;;
11247;SDS011;5681;53.316;13.950;2023-06-19T04:06:24;13.43;;;11.40;;
11247;SDS011;5681;53.316;13.950;2023-06-19T04:08:50;13.23;;;11.60;;
11247;SDS011;5681;53.316;13.950;2023-06-19T04:11:17;16.05;;;11.45;;
11247;SDS011;5681;53.316;13.950;2023-06-19T04:13:45;12.57;;;11.38;;
11247;SDS011;5681;53.316;13.950;2023-06-19T04:16:11;13.65;;;11.63;;
11247;SDS011;5681;53.316;13.950;2023-06-19T04:18:37;12.70;;;11.50;;
11247;SDS011;5681;53.316;13.950;2023-06-19T04:21:04;12.10;;;10.98;;
11247;SDS011;5681;53.316;13.950;2023-06-19T04:23:30;11.90;;;10.80;;
11247;SDS011;5681;53.316;13.950;2023-06-19T04:25:56;12.40;;;11.00;;
11247;SDS011;5681;53.316;13.950;2023-06-19T04:28:23;12.95;;;11.32;;
11247;SDS011;5681;53.316;13.950;2023-06-19T04:30:50;14.95;;;11.02;;
11247;SDS011;5681;53.316;13.950;2023-06-19T04:33:25;12.55;;;11.05;;
11247;SDS011;5681;53.316;13.950;2023-06-19T04:35:52;12.35;;;11.05;;
11247;SDS011;5681;53.316;13.950;2023-06-19T04:38:18;11.57;;;10.52;;
11247;SDS011;5681;53.316;13.950;2023-06-19T04:40:48;12.48;;;10.48;;
11247;SDS011;5681;53.316;13.950;2023-06-19T04:43:15;11.88;;;10.65;;
11247;SDS011;5681;53.316;13.950;2023-06-19T04:45:41;12.82;;;10.65;;
11247;SDS011;5681;53.316;13.950;2023-06-19T04:48:09;10.85;;;9.75;;
11247;SDS011;5681;53.316;13.950;2023-06-19T04:50:36;15.60;;;11.85;;
11247;SDS011;5681;53.316;13.950;2023-06-19T04:53:02;18.67;;;11.70;;
11247;SDS011;5681;53.316;13.950;2023-06-19T04:55:29;11.98;;;10.65;;
11247;SDS011;5681;53.316;13.950;2023-06-19T04:57:55;11.05;;;10.05;;
11247;SDS011;5681;53.316;13.950;2023-06-19T05:00:22;11.95;;;10.85;;
11247;SDS011;5681;53.316;13.950;2023-06-19T05:02:49;11.73;;;10.63;;
11247;SDS011;5681;53.316;13.950;2023-06-19T05:05:17;11.77;;;10.68;;
11247;SDS011;5681;53.316;13.950;2023-06-19T05:07:43;11.35;;;10.25;;
11247;SDS011;5681;53.316;13.950;2023-06-19T05:10:11;11.20;;;10.13;;
11247;SDS011;5681;53.316;13.950;2023-06-19T05:12:37;10.93;;;9.90;;
11247;SDS011;5681;53.316;13.950;2023-06-19T05:15:04;11.88;;;9.60;;
11247;SDS011;5681;53.316;13.950;2023-06-19T05:17:31;11.57;;;10.00;;
11247;SDS011;5681;53.316;13.950;2023-06-19T05:19:57;11.13;;;9.95;;
11247;SDS011;5681;53.316;13.950;2023-06-19T05:22:25;10.63;;;9.73;;
11247;SDS011;5681;53.316;13.950;2023-06-19T05:24:52;11.18;;;10.27;;
11247;SDS011;5681;53.316;13.950;2023-06-19T05:27:18;11.77;;;10.57;;
11247;SDS011;5681;53.316;13.950;2023-06-19T05:29:44;11.43;;;10.13;;
11247;SDS011;5681;53.316;13.950;2023-06-19T05:32:11;10.75;;;9.65;;
11247;SDS011;5681;53.316;13.950;2023-06-19T05:34:37;10.60;;;9.55;;
11247;SDS011;5681;53.316;13.950;2023-06-19T05:37:04;11.93;;;9.23;;
11247;SDS011;5681;53.316;13.950;2023-06-19T05:39:31;10.13;;;8.95;;
11247;SDS011;5681;53.316;13.950;2023-06-19T05:41:58;9.88;;;9.07;;
11247;SDS011;5681;53.316;13.950;2023-06-19T05:44:24;10.23;;;9.32;;
11247;SDS011;5681;53.316;13.950;2023-06-19T05:46:50;9.90;;;8.93;;
11247;SDS011;5681;53.316;13.950;2023-06-19T05:49:17;12.57;;;8.80;;
11247;SDS011;5681;53.316;13.950;2023-06-19T05:51:43;10.80;;;9.70;;
11247;SDS011;5681;53.316;13.950;2023-06-19T05:54:09;10.18;;;8.65;;
11247;SDS011;5681;53.316;13.950;2023-06-19T05:56:37;12.80;;;8.90;;
11247;SDS011;5681;53.316;13.950;2023-06-19T05:59:03;10.45;;;9.38;;
11247;SDS011;5681;53.316;13.950;2023-06-19T06:01:30;9.82;;;8.82;;
11247;SDS011;5681;53.316;13.950;2023-06-19T06:03:56;9.43;;;8.45;;
11247;SDS011;5681;53.316;13.950;2023-06-19T06:06:23;9.65;;;8.65;;
11247;SDS011;5681;53.316;13.950;2023-06-19T06:08:50;9.85;;;9.05;;
11247;SDS011;5681;53.316;13.950;2023-06-19T06:11:17;10.15;;;9.07;;
11247;SDS011;5681;53.316;13.950;2023-06-19T06:13:45;10.43;;;9.25;;
11247;SDS011;5681;53.316;13.950;2023-06-19T06:16:11;10.20;;;8.75;;
11247;SDS011;5681;53.316;13.950;2023-06-19T06:18:37;12.63;;;9.45;;
11247;SDS011;5681;53.316;13.950;2023-06-19T06:21:04;11.10;;;8.88;;
11247;SDS011;5681;53.316;13.950;2023-06-19T06:23:30;9.73;;;8.40;;
11247;SDS011;5681;53.316;13.950;2023-06-19T06:25:56;9.55;;;8.55;;
11247;SDS011;5681;53.316;13.950;2023-06-19T06:28:27;11.52;;;8.40;;
11247;SDS011;5681;53.316;13.950;2023-06-19T06:30:55;9.60;;;8.70;;
11247;SDS011;5681;53.316;13.950;2023-06-19T06:33:21;11.57;;;9.00;;
11247;SDS011;5681;53.316;13.950;2023-06-19T06:35:48;9.85;;;8.88;;
11247;SDS011;5681;53.316;13.950;2023-06-19T06:38:14;9.23;;;8.52;;
11247;SDS011;5681;53.316;13.950;2023-06-19T06:40:40;10.90;;;9.80;;
11247;SDS011;5681;53.316;13.950;2023-06-19T06:43:08;10.13;;;9.32;;
11247;SDS011;5681;53.316;13.950;2023-06-19T06:45:34;9.85;;;8.85;;
11247;SDS011;5681;53.316;13.950;2023-06-19T06:48:04;9.63;;;8.48;;
11247;SDS011;5681;53.316;13.950;2023-06-19T06:50:30;9.80;;;8.88;;
11247;SDS011;5681;53.316;13.950;2023-06-19T06:52:57;9.57;;;8.68;;
11247;SDS011;5681;53.316;13.950;2023-06-19T06:55:23;9.65;;;8.50;;
11247;SDS011;5681;53.316;13.950;2023-06-19T06:57:50;10.52;;;9.57;;
11247;SDS011;5681;53.316;13.950;2023-06-19T07:00:16;9.88;;;8.98;;
11247;SDS011;5681;53.316;13.950;2023-06-19T07:02:43;10.40;;;8.73;;
11247;SDS011;5681;53.316;13.950;2023-06-19T07:05:13;9.90;;;9.00;;
11247;SDS011;5681;53.316;13.950;2023-06-19T07:07:40;9.38;;;8.23;;
11247;SDS011;5681;53.316;13.950;2023-06-19T07:10:07;9.68;;;8.88;;
11247;SDS011;5681;53.316;13.950;2023-06-19T07:12:34;10.27;;;9.30;;
11247;SDS011;5681;53.316;13.950;2023-06-19T07:15:01;10.55;;;9.23;;
11247;SDS011;5681;53.316;13.950;2023-06-19T07:17:27;10.95;;;9.80;;
11247;SDS011;5681;53.316;13.950;2023-06-19T07:19:54;10.73;;;9.02;;
11247;SDS011;5681;53.316;13.950;2023-06-19T07:22:21;11.07;;;9.73;;
11247;SDS011;5681;53.316;13.950;2023-06-19T07:24:48;9.88;;;8.98;;
11247;SDS011;5681;53.316;13.950;2023-06-19T07:27:14;9.15;;;8.30;;
11247;SDS011;5681;53.316;13.950;2023-06-19T07:29:40;10.63;;;8.88;;
11247;SDS011;5681;53.316;13.950;2023-06-19T07:32:07;9.65;;;8.75;;
11247;SDS011;5681;53.316;13.950;2023-06-19T07:34:33;9.85;;;8.85;;
11247;SDS011;5681;53.316;13.950;2023-06-19T07:37:00;8.60;;;7.80;;
11247;SDS011;5681;53.316;13.950;2023-06-19T07:39:27;8.30;;;7.50;;
11247;SDS011;5681;53.316;13.950;2023-06-19T07:41:53;8.70;;;7.90;;
11247;SDS011;5681;53.316;13.950;2023-06-19T07:44:20;9.85;;;8.82;;
11247;SDS011;5681;53.316;13.950;2023-06-19T07:46:46;9.60;;;8.63;;
11247;SDS011;5681;53.316;13.950;2023-06-19T07:49:12;10.25;;;8.73;;
11247;SDS011;5681;53.316;13.950;2023-06-19T07:51:39;13.90;;;8.95;;
11247;SDS011;5681;53.316;13.950;2023-06-19T07:54:05;10.15;;;9.02;;
11247;SDS011;5681;53.316;13.950;2023-06-19T07:56:33;10.75;;;9.23;;
11247;SDS011;5681;53.316;13.950;2023-06-19T07:58:59;10.85;;;9.85;;
11247;SDS011;5681;53.316;13.950;2023-06-19T08:01:25;10.55;;;9.55;;
11247;SDS011;5681;53.316;13.950;2023-06-19T08:03:52;10.98;;;9.40;;
11247;SDS011;5681;53.316;13.950;2023-06-19T08:06:18;14.30;;;10.77;;
11247;SDS011;5681;53.316;13.950;2023-06-19T08:08:45;11.35;;;10.18;;
11247;SDS011;5681;53.316;13.950;2023-06-19T08:11:11;11.35;;;10.30;;
11247;SDS011;5681;53.316;13.950;2023-06-19T08:13:39;9.90;;;9.00;;
11247;SDS011;5681;53.316;13.950;2023-06-19T08:16:05;12.18;;;9.98;;
11247;SDS011;5681;53.316;13.950;2023-06-19T08:18:32;13.48;;;10.75;;
11247;SDS011;5681;53.316;13.950;2023-06-19T08:20:58;11.55;;;10.48;;
11247;SDS011;5681;53.316;13.950;2023-06-19T08:23:24;11.30;;;10.07;;
11247;SDS011;5681;53.316;13.950;2023-06-19T08:25:51;11.48;;;10.27;;
11247;SDS011;5681;53.316;13.950;2023-06-19T08:28:17;11.02;;;9.65;;
11247;SDS011;5681;53.316;13.950;2023-06-19T08:30:45;15.40;;;10.70;;
11247;SDS011;5681;53.316;13.950;2023-06-19T08:33:12;10.90;;;9.98;;
11247;SDS011;5681;53.316;13.950;2023-06-19T08:35:39;11.40;;;10.40;;
11247;SDS011;5681;53.316;13.950;2023-06-19T08:38:05;11.80;;;10.70;;
11247;SDS011;5681;53.316;13.950;2023-06-19T08:40:32;12.50;;;11.02;;
11247;SDS011;5681;53.316;13.950;2023-06-19T08:42:58;12.15;;;10.50;;
11247;SDS011;5681;53.316;13.950;2023-06-19T08:45:25;12.30;;;11.18;;
11247;SDS011;5681;53.316;13.950;2023-06-19T08:47:58;12.32;;;11.32;;
11247;SDS011;5681;53.316;13.950;2023-06-19T08:50:25;12.82;;;11.55;;
11247;SDS011;5681;53.316;13.950;2023-06-19T08:52:51;12.70;;;11.20;;
11247;SDS011;5681;53.316;13.950;2023-06-19T08:55:17;12.75;;;11.45;;
11247;SDS011;5681;53.316;13.950;2023-06-19T08:57:44;12.40;;;11.20;;
11247;SDS011;5681;53.316;13.950;2023-06-19T09:00:11;11.95;;;10.82;;
11247;SDS011;5681;53.316;13.950;2023-06-19T09:02:40;12.73;;;11.57;;
11247;SDS011;5681;53.316;13.950;2023-06-19T09:05:13;11.77;;;10.57;;
11247;SDS011;5681;53.316;13.950;2023-06-19T09:07:40;11.05;;;9.90;;
11247;SDS011;5681;53.316;13.950;2023-06-19T09:10:14;11.43;;;10.32;;
11247;SDS011;5681;53.316;13.950;2023-06-19T09:12:41;11.02;;;9.60;;
11247;SDS011;5681;53.316;13.950;2023-06-19T09:15:11;10.13;;;9.13;;
11247;SDS011;5681;53.316;13.950;2023-06-19T09:17:37;12.68;;;11.38;;
11247;SDS011;5681;53.316;13.950;2023-06-19T09:20:04;10.55;;;9.65;;
11247;SDS011;5681;53.316;13.950;2023-06-19T09:22:33;14.02;;;10.95;;
11247;SDS011;5681;53.316;13.950;2023-06-19T09:25:00;10.02;;;9.13;;
11247;SDS011;5681;53.316;13.950;2023-06-19T09:27:31;11.60;;;10.50;;
11247;SDS011;5681;53.316;13.950;2023-06-19T09:29:57;11.90;;;9.93;;
11247;SDS011;5681;53.316;13.950;2023-06-19T09:32:24;11.35;;;9.80;;
11247;SDS011;5681;53.316;13.950;2023-06-19T09:34:54;9.50;;;8.60;;
11247;SDS011;5681;53.316;13.950;2023-06-19T09:37:23;11.02;;;10.00;;
11247;SDS011;5681;53.316;13.950;2023-06-19T09:39:52;10.15;;;9.20;;
11247;SDS011;5681;53.316;13.950;2023-06-19T09:42:20;11.60;;;9.82;;
11247;SDS011;5681;53.316;13.950;2023-06-19T09:44:51;15.38;;;9.95;;
11247;SDS011;5681;53.316;13.950;2023-06-19T09:47:21;15.82;;;11.30;;
11247;SDS011;5681;53.316;13.950;2023-06-19T09:49:50;11.75;;;10.65;;
11247;SDS011;5681;53.316;13.950;2023-06-19T09:52:20;10.98;;;9.93;;
11247;SDS011;5681;53.316;13.950;2023-06-19T09:54:47;12.38;;;10.43;;
11247;SDS011;5681;53.316;13.950;2023-06-19T09:57:15;11.40;;;10.23;;
11247;SDS011;5681;53.316;13.950;2023-06-19T09:59:43;11.60;;;10.32;;
11247;SDS011;5681;53.316;13.950;2023-06-19T10:02:11;11.55;;;9.63;;
11247;SDS011;5681;53.316;13.950;2023-06-19T10:04:43;13.30;;;10.02;;
11247;SDS011;5681;53.316;13.950;2023-06-19T10:07:16;10.35;;;9.30;;
11247;SDS011;5681;53.316;13.950;2023-06-19T10:09:54;11.07;;;8.20;;
11247;SDS011;5681;53.316;13.950;2023-06-19T10:12:34;12.38;;;8.50;;
11247;SDS011;5681;53.316;13.950;2023-06-19T10:15:08;9.45;;;8.45;;
11247;SDS011;5681;53.316;13.950;2023-06-19T10:17:42;9.15;;;7.80;;
11247;SDS011;5681;53.316;13.950;2023-06-19T10:20:19;9.32;;;7.47;;
11247;SDS011;5681;53.316;13.950;2023-06-19T10:22:50;8.95;;;7.65;;
11247;SDS011;5681;53.316;13.950;2023-06-19T10:25:21;12.52;;;7.15;;
11247;SDS011;5681;53.316;13.950;2023-06-19T10:27:49;9.50;;;7.38;;
11247;SDS011;5681;53.316;13.950;2023-06-19T10:30:17;7.72;;;6.93;;
11247;SDS011;5681;53.316;13.950;2023-06-19T10:32:44;7.00;;;6.30;;
11247;SDS011;5681;53.316;13.950;2023-06-19T10:35:10;7.45;;;6.63;;
11247;SDS011;5681;53.316;13.950;2023-06-19T10:37:37;7.93;;;6.22;;
11247;SDS011;5681;53.316;13.950;2023-06-19T10:40:04;7.03;;;6.32;;
11247;SDS011;5681;53.316;13.950;2023-06-19T10:42:34;8.90;;;6.40;;
11247;SDS011;5681;53.316;13.950;2023-06-19T10:45:03;7.63;;;6.30;;
11247;SDS011;5681;53.316;13.950;2023-06-19T10:47:31;9.10;;;5.65;;
11247;SDS011;5681;53.316;13.950;2023-06-19T10:49:58;10.73;;;6.10;;
11247;SDS011;5681;53.316;13.950;2023-06-19T10:52:24;8.20;;;6.15;;
11247;SDS011;5681;53.316;13.950;2023-06-19T10:54:52;7.75;;;6.30;;
11247;SDS011;5681;53.316;13.950;2023-06-19T10:57:25;10.75;;;5.70;;
11247;SDS011;5681;53.316;13.950;2023-06-19T10:59:52;9.88;;;5.97;;
11247;SDS011;5681;53.316;13.950;2023-06-19T11:02:20;7.15;;;6.03;;
11247;SDS011;5681;53.316;13.950;2023-06-19T11:04:47;8.27;;;6.05;;
11247;SDS011;5681;53.316;13.950;2023-06-19T11:07:14;6.47;;;5.80;;
11247;SDS011;5681;53.316;13.950;2023-06-19T11:09:40;7.43;;;5.60;;
11247;SDS011;5681;53.316;13.950;2023-06-19T11:12:07;6.68;;;5.97;;
11247;SDS011;5681;53.316;13.950;2023-06-19T11:14:34;6.82;;;5.53;;
11247;SDS011;5681;53.316;13.950;2023-06-19T11:17:05;10.30;;;6.22;;
11247;SDS011;5681;53.316;13.950;2023-06-19T11:19:33;7.05;;;5.80;;
11247;SDS011;5681;53.316;13.950;2023-06-19T11:21:59;9.18;;;6.35;;
11247;SDS011;5681;53.316;13.950;2023-06-19T11:24:28;8.65;;;5.95;;
11247;SDS011;5681;53.316;13.950;2023-06-19T11:26:55;7.57;;;6.03;;
11247;SDS011;5681;53.316;13.950;2023-06-19T11:29:25;9.07;;;6.18;;
11247;SDS011;5681;53.316;13.950;2023-06-19T11:31:53;7.93;;;6.78;;
11247;SDS011;5681;53.316;13.950;2023-06-19T11:34:30;6.30;;;5.70;;
11247;SDS011;5681;53.316;13.950;2023-06-19T11:36:59;12.60;;;6.88;;
11247;SDS011;5681;53.316;13.950;2023-06-19T11:39:25;7.82;;;6.60;;
11247;SDS011;5681;53.316;13.950;2023-06-19T11:41:52;7.53;;;6.72;;
11247;SDS011;5681;53.316;13.950;2023-06-19T11:44:18;11.57;;;6.45;;
11247;SDS011;5681;53.316;13.950;2023-06-19T11:46:45;8.35;;;6.55;;
11247;SDS011;5681;53.316;13.950;2023-06-19T11:49:12;10.77;;;6.30;;
11247;SDS011;5681;53.316;13.950;2023-06-19T11:51:40;7.15;;;6.25;;
11247;SDS011;5681;53.316;13.950;2023-06-19T11:54:07;10.05;;;6.68;;
11247;SDS011;5681;53.316;13.950;2023-06-19T11:56:34;7.72;;;6.50;;
11247;SDS011;5681;53.316;13.950;2023-06-19T11:59:01;8.88;;;6.28;;
11247;SDS011;5681;53.316;13.950;2023-06-19T12:01:28;8.02;;;6.15;;
11247;SDS011;5681;53.316;13.950;2023-06-19T12:03:54;7.78;;;6.70;;
11247;SDS011;5681;53.316;13.950;2023-06-19T12:06:21;9.38;;;6.78;;
11247;SDS011;5681;53.316;13.950;2023-06-19T12:08:48;12.43;;;6.53;;
11247;SDS011;5681;53.316;13.950;2023-06-19T12:11:15;10.55;;;7.38;;
11247;SDS011;5681;53.316;13.950;2023-06-19T12:13:41;7.00;;;6.38;;
11247;SDS011;5681;53.316;13.950;2023-06-19T12:16:07;7.97;;;6.45;;
11247;SDS011;5681;53.316;13.950;2023-06-19T12:18:34;8.93;;;6.65;;
11247;SDS011;5681;53.316;13.950;2023-06-19T12:21:00;11.23;;;6.60;;
11247;SDS011;5681;53.316;13.950;2023-06-19T12:23:26;7.90;;;6.07;;
11247;SDS011;5681;53.316;13.950;2023-06-19T12:25:54;9.43;;;6.20;;
11247;SDS011;5681;53.316;13.950;2023-06-19T12:28:21;8.63;;;6.68;;
11247;SDS011;5681;53.316;13.950;2023-06-19T12:30:47;6.85;;;6.00;;
11247;SDS011;5681;53.316;13.950;2023-06-19T12:33:16;12.30;;;7.10;;
11247;SDS011;5681;53.316;13.950;2023-06-19T12:35:43;11.95;;;6.60;;
11247;SDS011;5681;53.316;13.950;2023-06-19T12:38:10;8.07;;;6.90;;
11247;SDS011;5681;53.316;13.950;2023-06-19T12:40:36;7.25;;;6.28;;
11247;SDS011;5681;53.316;13.950;2023-06-19T12:43:04;8.02;;;7.30;;
11247;SDS011;5681;53.316;13.950;2023-06-19T12:45:31;8.93;;;7.13;;
11247;SDS011;5681;53.316;13.950;2023-06-19T12:47:57;9.23;;;7.60;;
11247;SDS011;5681;53.316;13.950;2023-06-19T12:50:24;8.38;;;7.68;;
11247;SDS011;5681;53.316;13.950;2023-06-19T12:52:50;11.52;;;6.85;;
11247;SDS011;5681;53.316;13.950;2023-06-19T12:55:16;7.85;;;6.88;;
11247;SDS011;5681;53.316;13.950;2023-06-19T12:57:43;8.15;;;6.50;;
11247;SDS011;5681;53.316;13.950;2023-06-19T13:00:11;7.25;;;6.55;;
11247;SDS011;5681;53.316;13.950;2023-06-19T13:02:38;7.30;;;6.57;;
11247;SDS011;5681;53.316;13.950;2023-06-19T13:05:05;11.57;;;6.40;;
11247;SDS011;5681;53.316;13.950;2023-06-19T13:07:32;8.48;;;6.43;;
11247;SDS011;5681;53.316;13.950;2023-06-19T13:09:59;7.88;;;6.35;;
11247;SDS011;5681;53.316;13.950;2023-06-19T13:12:25;7.63;;;6.55;;
11247;SDS011;5681;53.316;13.950;2023-06-19T13:14:51;7.32;;;6.25;;
11247;SDS011;5681;53.316;13.950;2023-06-19T13:17:19;7.15;;;6.47;;
11247;SDS011;5681;53.316;13.950;2023-06-19T13:19:45;9.48;;;7.15;;
11247;SDS011;5681;53.316;13.950;2023-06-19T13:22:12;9.18;;;6.75;;
11247;SDS011;5681;53.316;13.950;2023-06-19T13:24:38;7.20;;;6.50;;
11247;SDS011;5681;53.316;13.950;2023-06-19T13:27:05;7.50;;;6.80;;
11247;SDS011;5681;53.316;13.950;2023-06-19T13:29:31;7.30;;;6.30;;
11247;SDS011;5681;53.316;13.950;2023-06-19T13:31:57;8.30;;;7.55;;
11247;SDS011;5681;53.316;13.950;2023-06-19T13:34:25;10.27;;;6.68;;
11247;SDS011;5681;53.316;13.950;2023-06-19T13:36:52;10.85;;;7.47;;
11247;SDS011;5681;53.316;13.950;2023-06-19T13:39:18;7.45;;;6.75;;
11247;SDS011;5681;53.316;13.950;2023-06-19T13:41:45;8.18;;;6.72;;
11247;SDS011;5681;53.316;13.950;2023-06-19T13:44:11;10.50;;;7.20;;
11247;SDS011;5681;53.316;13.950;2023-06-19T13:46:38;7.72;;;7.03;;
11247;SDS011;5681;53.316;13.950;2023-06-19T13:49:04;7.88;;;7.15;;
11247;SDS011;5681;53.316;13.950;2023-06-19T13:51:32;7.93;;;7.22;;
11247;SDS011;5681;53.316;13.950;2023-06-19T13:53:59;9.93;;;7.65;;
11247;SDS011;5681;53.316;13.950;2023-06-19T13:56:27;7.47;;;6.88;;
11247;SDS011;5681;53.316;13.950;2023-06-19T13:58:53;8.40;;;6.93;;
11247;SDS011;5681;53.316;13.950;2023-06-19T14:01:20;8.80;;;7.90;;
11247;SDS011;5681;53.316;13.950;2023-06-19T14:03:46;7.93;;;6.82;;
11247;SDS011;5681;53.316;13.950;2023-06-19T14:06:13;7.70;;;7.00;;
11247;SDS011;5681;53.316;13.950;2023-06-19T14:08:41;8.85;;;7.10;;
11247;SDS011;5681;53.316;13.950;2023-06-19T14:11:07;7.57;;;6.72;;
11247;SDS011;5681;53.316;13.950;2023-06-19T14:13:34;7.03;;;6.43;;
11247;SDS011;5681;53.316;13.950;2023-06-19T14:16:00;7.72;;;7.03;;
11247;SDS011;5681;53.316;13.950;2023-06-19T14:18:27;8.85;;;7.35;;
11247;SDS011;5681;53.316;13.950;2023-06-19T14:20:53;7.50;;;6.85;;
11247;SDS011;5681;53.316;13.950;2023-06-19T14:23:20;7.15;;;6.40;;
11247;SDS011;5681;53.316;13.950;2023-06-19T14:25:48;7.07;;;6.47;;
11247;SDS011;5681;53.316;13.950;2023-06-19T14:28:14;7.70;;;7.00;;
11247;SDS011;5681;53.316;13.950;2023-06-19T14:30:41;7.22;;;6.53;;
11247;SDS011;5681;53.316;13.950;2023-06-19T14:33:07;8.57;;;6.88;;
11247;SDS011;5681;53.316;13.950;2023-06-19T14:35:39;7.22;;;6.53;;
11247;SDS011;5681;53.316;13.950;2023-06-19T14:38:06;8.95;;;7.15;;